sensor_id;sensor_type;location;lat;lon;timestamp;temperature;humidity
14401;DHT22;7285;50.894;5.462;2022-12-18T00:01:16;-7.30;99.90
14401;DHT22;7285;50.894;5.462;2022-12-18T00:03:43;-7.30;99.90
14401;DHT22;7285;50.894;5.462;2022-12-18T00:06:11;-7.30;99.90
14401;DHT22;7285;50.894;5.462;2022-12-18T00:08:39;-7.30;99.90
14401;DHT22;7285;50.894;5.462;2022-12-18T00:11:07;-7.30;99.90
14401;DHT22;7285;50.894;5.462;2022-12-18T00:13:35;-7.30;99.90
14401;DHT22;7285;50.894;5.462;2022-12-18T00:16:03;-7.40;99.90
14401;DHT22;7285;50.894;5.462;2022-12-18T00:18:30;-7.40;99.90
14401;DHT22;7285;50.894;5.462;2022-12-18T00:20:59;-7.40;99.90
14401;DHT22;7285;50.894;5.462;2022-12-18T00:23:26;-7.50;99.90
14401;DHT22;7285;50.894;5.462;2022-12-18T00:25:53;-7.50;99.90
14401;DHT22;7285;50.894;5.462;2022-12-18T00:28:20;-7.50;99.90
14401;DHT22;7285;50.894;5.462;2022-12-18T00:30:49;-7.60;99.90
14401;DHT22;7285;50.894;5.462;2022-12-18T00:33:17;-7.60;99.90
14401;DHT22;7285;50.894;5.462;2022-12-18T00:35:44;-7.50;99.90
14401;DHT22;7285;50.894;5.462;2022-12-18T00:38:11;-7.50;99.90
14401;DHT22;7285;50.894;5.462;2022-12-18T00:40:38;-7.50;99.90
14401;DHT22;7285;50.894;5.462;2022-12-18T00:43:05;-7.70;99.90
14401;DHT22;7285;50.894;5.462;2022-12-18T00:45:31;-7.70;99.90
14401;DHT22;7285;50.894;5.462;2022-12-18T00:48:00;-7.60;99.90
14401;DHT22;7285;50.894;5.462;2022-12-18T00:50:27;-7.70;99.90
14401;DHT22;7285;50.894;5.462;2022-12-18T00:52:54;-7.60;99.90
14401;DHT22;7285;50.894;5.462;2022-12-18T00:55:21;-7.60;99.90
14401;DHT22;7285;50.894;5.462;2022-12-18T00:57:47;-7.60;99.90
14401;DHT22;7285;50.894;5.462;2022-12-18T01:00:15;-7.70;99.90
14401;DHT22;7285;50.894;5.462;2022-12-18T01:02:42;-7.60;99.90
14401;DHT22;7285;50.894;5.462;2022-12-18T01:05:12;-7.70;99.90
14401;DHT22;7285;50.894;5.462;2022-12-18T01:07:39;-7.70;99.90
14401;DHT22;7285;50.894;5.462;2022-12-18T01:10:09;-7.70;1.00
14401;DHT22;7285;50.894;5.462;2022-12-18T01:12:38;-7.70;1.00
14401;DHT22;7285;50.894;5.462;2022-12-18T01:15:13;-7.80;99.90
14401;DHT22;7285;50.894;5.462;2022-12-18T01:17:40;-7.80;99.90
14401;DHT22;7285;50.894;5.462;2022-12-18T01:20:10;-7.80;99.90
14401;DHT22;7285;50.894;5.462;2022-12-18T01:22:37;-7.90;99.90
14401;DHT22;7285;50.894;5.462;2022-12-18T01:25:05;-7.90;99.90
14401;DHT22;7285;50.894;5.462;2022-12-18T01:27:33;-7.90;99.90
14401;DHT22;7285;50.894;5.462;2022-12-18T01:30:00;-7.90;99.90
14401;DHT22;7285;50.894;5.462;2022-12-18T01:32:29;-7.80;99.90
14401;DHT22;7285;50.894;5.462;2022-12-18T01:34:57;-7.90;99.90
14401;DHT22;7285;50.894;5.462;2022-12-18T01:37:25;-7.90;99.90
14401;DHT22;7285;50.894;5.462;2022-12-18T01:39:52;-7.90;99.90
14401;DHT22;7285;50.894;5.462;2022-12-18T01:42:20;-7.90;99.90
14401;DHT22;7285;50.894;5.462;2022-12-18T01:45:00;-7.90;99.90
14401;DHT22;7285;50.894;5.462;2022-12-18T01:47:32;-8.00;99.90
14401;DHT22;7285;50.894;5.462;2022-12-18T01:50:02;-8.00;99.90
14401;DHT22;7285;50.894;5.462;2022-12-18T01:52:33;-8.10;99.90
14401;DHT22;7285;50.894;5.462;2022-12-18T01:55:02;-8.20;99.90
14401;DHT22;7285;50.894;5.462;2022-12-18T01:57:29;-8.20;72.90
14401;DHT22;7285;50.894;5.462;2022-12-18T01:59:59;-8.20;56.20
14401;DHT22;7285;50.894;5.462;2022-12-18T02:02:28;-8.20;75.70
14401;DHT22;7285;50.894;5.462;2022-12-18T02:04:56;-8.20;70.10
14401;DHT22;7285;50.894;5.462;2022-12-18T02:07:28;-8.20;92.50
14401;DHT22;7285;50.894;5.462;2022-12-18T02:10:02;-8.20;99.90
14401;DHT22;7285;50.894;5.462;2022-12-18T02:12:36;-8.20;27.80
14401;DHT22;7285;50.894;5.462;2022-12-18T02:15:13;-8.20;97.80
14401;DHT22;7285;50.894;5.462;2022-12-18T02:17:46;-8.20;99.90
14401;DHT22;7285;50.894;5.462;2022-12-18T02:20:19;-8.10;99.90
14401;DHT22;7285;50.894;5.462;2022-12-18T02:23:08;-8.10;99.90
14401;DHT22;7285;50.894;5.462;2022-12-18T02:26:04;-8.10;99.90
14401;DHT22;7285;50.894;5.462;2022-12-18T02:28:36;-8.10;99.90
14401;DHT22;7285;50.894;5.462;2022-12-18T02:31:07;-8.20;99.90
14401;DHT22;7285;50.894;5.462;2022-12-18T02:33:36;-8.20;99.90
14401;DHT22;7285;50.894;5.462;2022-12-18T02:36:04;-8.30;99.90
14401;DHT22;7285;50.894;5.462;2022-12-18T02:38:33;-8.30;99.90
14401;DHT22;7285;50.894;5.462;2022-12-18T02:41:03;-8.30;99.90
14401;DHT22;7285;50.894;5.462;2022-12-18T02:43:31;-8.20;99.90
14401;DHT22;7285;50.894;5.462;2022-12-18T02:46:00;-8.30;98.90
14401;DHT22;7285;50.894;5.462;2022-12-18T02:48:30;-8.30;49.20
14401;DHT22;7285;50.894;5.462;2022-12-18T02:51:03;-8.30;10.00
14401;DHT22;7285;50.894;5.462;2022-12-18T02:53:38;-8.40;1.00
14401;DHT22;7285;50.894;5.462;2022-12-18T02:56:11;-8.40;1.00
14401;DHT22;7285;50.894;5.462;2022-12-18T02:58:45;-8.40;10.50
14401;DHT22;7285;50.894;5.462;2022-12-18T03:01:19;-8.30;99.90
14401;DHT22;7285;50.894;5.462;2022-12-18T03:03:50;-8.20;99.90
14401;DHT22;7285;50.894;5.462;2022-12-18T03:06:23;-8.10;99.90
14401;DHT22;7285;50.894;5.462;2022-12-18T03:08:54;-8.10;1.00
14401;DHT22;7285;50.894;5.462;2022-12-18T03:11:25;-8.10;1.00
14401;DHT22;7285;50.894;5.462;2022-12-18T03:14:08;-8.20;99.90
14401;DHT22;7285;50.894;5.462;2022-12-18T03:16:36;-8.20;99.90
14401;DHT22;7285;50.894;5.462;2022-12-18T03:19:08;-8.20;99.90
14401;DHT22;7285;50.894;5.462;2022-12-18T03:21:38;-8.20;99.90
14401;DHT22;7285;50.894;5.462;2022-12-18T03:24:08;-8.20;99.90
14401;DHT22;7285;50.894;5.462;2022-12-18T03:26:39;-8.20;99.90
14401;DHT22;7285;50.894;5.462;2022-12-18T03:29:09;-8.30;99.90
14401;DHT22;7285;50.894;5.462;2022-12-18T03:31:39;-8.40;99.90
14401;DHT22;7285;50.894;5.462;2022-12-18T03:34:11;-8.30;99.90
14401;DHT22;7285;50.894;5.462;2022-12-18T03:36:38;-8.30;99.90
14401;DHT22;7285;50.894;5.462;2022-12-18T03:39:05;-8.30;99.90
14401;DHT22;7285;50.894;5.462;2022-12-18T03:41:35;-8.40;99.90
14401;DHT22;7285;50.894;5.462;2022-12-18T03:44:10;-8.30;99.90
14401;DHT22;7285;50.894;5.462;2022-12-18T03:46:41;-8.40;99.90
14401;DHT22;7285;50.894;5.462;2022-12-18T03:49:13;-8.40;99.90
14401;DHT22;7285;50.894;5.462;2022-12-18T03:51:45;-8.40;99.90
14401;DHT22;7285;50.894;5.462;2022-12-18T03:54:15;-8.40;97.50
14401;DHT22;7285;50.894;5.462;2022-12-18T03:56:46;-8.50;1.00
14401;DHT22;7285;50.894;5.462;2022-12-18T03:59:17;-8.60;1.00
14401;DHT22;7285;50.894;5.462;2022-12-18T04:01:47;-8.60;1.00
14401;DHT22;7285;50.894;5.462;2022-12-18T04:04:16;-8.60;1.00
14401;DHT22;7285;50.894;5.462;2022-12-18T04:06:45;-8.60;1.00
14401;DHT22;7285;50.894;5.462;2022-12-18T04:09:13;-8.60;1.00
14401;DHT22;7285;50.894;5.462;2022-12-18T04:11:41;-8.50;1.00
14401;DHT22;7285;50.894;5.462;2022-12-18T04:14:09;-8.50;1.00
14401;DHT22;7285;50.894;5.462;2022-12-18T04:16:39;-8.60;1.00
14401;DHT22;7285;50.894;5.462;2022-12-18T04:19:05;-8.60;1.00
14401;DHT22;7285;50.894;5.462;2022-12-18T04:21:32;-8.60;1.00
14401;DHT22;7285;50.894;5.462;2022-12-18T04:23:59;-8.60;1.00
14401;DHT22;7285;50.894;5.462;2022-12-18T04:26:26;-8.70;1.00
14401;DHT22;7285;50.894;5.462;2022-12-18T04:28:53;-8.80;1.00
14401;DHT22;7285;50.894;5.462;2022-12-18T04:31:20;-8.80;1.00
14401;DHT22;7285;50.894;5.462;2022-12-18T04:33:48;-8.80;1.00
14401;DHT22;7285;50.894;5.462;2022-12-18T04:36:15;-8.80;1.00
14401;DHT22;7285;50.894;5.462;2022-12-18T04:38:42;-8.80;1.00
14401;DHT22;7285;50.894;5.462;2022-12-18T04:41:09;-8.90;1.00
14401;DHT22;7285;50.894;5.462;2022-12-18T04:43:36;-8.90;1.00
14401;DHT22;7285;50.894;5.462;2022-12-18T04:46:03;-9.00;1.00
14401;DHT22;7285;50.894;5.462;2022-12-18T04:48:30;-9.00;1.00
14401;DHT22;7285;50.894;5.462;2022-12-18T04:50:59;-9.00;1.00
14401;DHT22;7285;50.894;5.462;2022-12-18T04:53:26;-9.00;1.00
14401;DHT22;7285;50.894;5.462;2022-12-18T04:56:02;-9.00;1.00
14401;DHT22;7285;50.894;5.462;2022-12-18T04:58:29;-9.10;1.00
14401;DHT22;7285;50.894;5.462;2022-12-18T05:00:56;-9.00;1.00
14401;DHT22;7285;50.894;5.462;2022-12-18T05:03:23;-8.90;1.00
14401;DHT22;7285;50.894;5.462;2022-12-18T05:05:50;-8.90;1.00
14401;DHT22;7285;50.894;5.462;2022-12-18T05:08:19;-8.90;1.00
14401;DHT22;7285;50.894;5.462;2022-12-18T05:10:46;-8.90;1.00
14401;DHT22;7285;50.894;5.462;2022-12-18T05:13:12;-8.90;1.00
14401;DHT22;7285;50.894;5.462;2022-12-18T05:15:39;-9.00;1.00
14401;DHT22;7285;50.894;5.462;2022-12-18T05:18:07;-8.90;1.00
14401;DHT22;7285;50.894;5.462;2022-12-18T05:20:34;-8.90;1.00
14401;DHT22;7285;50.894;5.462;2022-12-18T05:23:01;-9.00;1.00
14401;DHT22;7285;50.894;5.462;2022-12-18T05:25:29;-9.10;1.00
14401;DHT22;7285;50.894;5.462;2022-12-18T05:27:56;-9.00;1.00
14401;DHT22;7285;50.894;5.462;2022-12-18T05:30:23;-9.10;1.00
14401;DHT22;7285;50.894;5.462;2022-12-18T05:32:50;-9.00;1.00
14401;DHT22;7285;50.894;5.462;2022-12-18T05:35:17;-9.00;1.00
14401;DHT22;7285;50.894;5.462;2022-12-18T05:37:44;-9.00;1.00
14401;DHT22;7285;50.894;5.462;2022-12-18T05:40:11;-9.10;1.00
14401;DHT22;7285;50.894;5.462;2022-12-18T05:42:40;-9.00;1.00
14401;DHT22;7285;50.894;5.462;2022-12-18T05:45:07;-8.80;1.00
14401;DHT22;7285;50.894;5.462;2022-12-18T05:47:34;-9.00;1.00
14401;DHT22;7285;50.894;5.462;2022-12-18T05:50:01;-9.10;1.00
14401;DHT22;7285;50.894;5.462;2022-12-18T05:52:28;-9.00;1.00
14401;DHT22;7285;50.894;5.462;2022-12-18T05:54:55;-9.10;1.00
14401;DHT22;7285;50.894;5.462;2022-12-18T05:57:22;-9.10;1.00
14401;DHT22;7285;50.894;5.462;2022-12-18T05:59:50;-9.10;1.00
14401;DHT22;7285;50.894;5.462;2022-12-18T06:02:17;-9.10;1.00
14401;DHT22;7285;50.894;5.462;2022-12-18T06:04:46;-9.00;1.00
14401;DHT22;7285;50.894;5.462;2022-12-18T06:07:13;-9.00;1.00
14401;DHT22;7285;50.894;5.462;2022-12-18T06:09:40;-9.00;1.00
14401;DHT22;7285;50.894;5.462;2022-12-18T06:12:07;-9.00;1.00
14401;DHT22;7285;50.894;5.462;2022-12-18T06:14:34;-9.00;1.00
14401;DHT22;7285;50.894;5.462;2022-12-18T06:17:02;-9.10;1.00
14401;DHT22;7285;50.894;5.462;2022-12-18T06:19:29;-9.00;4.30
14401;DHT22;7285;50.894;5.462;2022-12-18T06:21:56;-9.00;53.80
14401;DHT22;7285;50.894;5.462;2022-12-18T06:24:24;-8.90;99.90
14401;DHT22;7285;50.894;5.462;2022-12-18T06:26:51;-9.00;99.90
14401;DHT22;7285;50.894;5.462;2022-12-18T06:29:18;-9.00;21.80
14401;DHT22;7285;50.894;5.462;2022-12-18T06:31:45;-9.10;1.00
14401;DHT22;7285;50.894;5.462;2022-12-18T06:34:13;-9.20;1.00
14401;DHT22;7285;50.894;5.462;2022-12-18T06:36:40;-9.20;1.00
14401;DHT22;7285;50.894;5.462;2022-12-18T06:39:07;-9.20;1.00
14401;DHT22;7285;50.894;5.462;2022-12-18T06:41:33;-9.20;1.00
14401;DHT22;7285;50.894;5.462;2022-12-18T06:44:00;-9.30;1.00
14401;DHT22;7285;50.894;5.462;2022-12-18T06:46:27;-9.30;1.00
14401;DHT22;7285;50.894;5.462;2022-12-18T06:48:54;-9.30;1.00
14401;DHT22;7285;50.894;5.462;2022-12-18T06:51:23;-9.30;1.00
14401;DHT22;7285;50.894;5.462;2022-12-18T06:53:50;-9.40;1.00
14401;DHT22;7285;50.894;5.462;2022-12-18T06:56:17;-9.40;1.00
14401;DHT22;7285;50.894;5.462;2022-12-18T06:58:44;-9.40;1.00
14401;DHT22;7285;50.894;5.462;2022-12-18T07:01:12;-9.40;1.00
14401;DHT22;7285;50.894;5.462;2022-12-18T07:03:40;-9.30;1.00
14401;DHT22;7285;50.894;5.462;2022-12-18T07:06:13;-9.30;1.00
14401;DHT22;7285;50.894;5.462;2022-12-18T07:08:42;-9.30;1.00
14401;DHT22;7285;50.894;5.462;2022-12-18T07:11:09;-9.20;1.00
14401;DHT22;7285;50.894;5.462;2022-12-18T07:13:36;-9.20;1.00
14401;DHT22;7285;50.894;5.462;2022-12-18T07:16:05;-9.20;1.00
14401;DHT22;7285;50.894;5.462;2022-12-18T07:18:32;-9.20;16.80
14401;DHT22;7285;50.894;5.462;2022-12-18T07:21:03;-9.10;98.70
14401;DHT22;7285;50.894;5.462;2022-12-18T07:23:31;-9.10;99.90
14401;DHT22;7285;50.894;5.462;2022-12-18T07:26:02;-9.00;99.90
14401;DHT22;7285;50.894;5.462;2022-12-18T07:28:30;-9.10;99.90
14401;DHT22;7285;50.894;5.462;2022-12-18T07:30:57;-9.00;99.90
14401;DHT22;7285;50.894;5.462;2022-12-18T07:33:24;-8.90;99.90
14401;DHT22;7285;50.894;5.462;2022-12-18T07:35:51;-8.90;99.90
14401;DHT22;7285;50.894;5.462;2022-12-18T07:38:18;-8.90;99.90
14401;DHT22;7285;50.894;5.462;2022-12-18T07:40:45;-8.80;99.90
14401;DHT22;7285;50.894;5.462;2022-12-18T07:43:13;-8.80;99.90
14401;DHT22;7285;50.894;5.462;2022-12-18T07:45:40;-8.80;99.90
14401;DHT22;7285;50.894;5.462;2022-12-18T07:48:08;-8.80;99.90
14401;DHT22;7285;50.894;5.462;2022-12-18T07:50:36;-8.90;99.90
14401;DHT22;7285;50.894;5.462;2022-12-18T07:53:03;-8.90;99.90
14401;DHT22;7285;50.894;5.462;2022-12-18T07:55:30;-8.80;99.90
14401;DHT22;7285;50.894;5.462;2022-12-18T07:58:00;-8.70;99.90
14401;DHT22;7285;50.894;5.462;2022-12-18T08:00:29;-8.60;99.90
14401;DHT22;7285;50.894;5.462;2022-12-18T08:02:56;-8.60;1.00
14401;DHT22;7285;50.894;5.462;2022-12-18T08:05:23;-8.50;1.00
14401;DHT22;7285;50.894;5.462;2022-12-18T08:07:50;-8.40;1.00
14401;DHT22;7285;50.894;5.462;2022-12-18T08:10:17;-8.40;1.00
14401;DHT22;7285;50.894;5.462;2022-12-18T08:12:44;-8.30;1.00
14401;DHT22;7285;50.894;5.462;2022-12-18T08:15:11;-8.30;1.00
14401;DHT22;7285;50.894;5.462;2022-12-18T08:17:39;-8.20;1.00
14401;DHT22;7285;50.894;5.462;2022-12-18T08:20:07;-8.10;1.00
14401;DHT22;7285;50.894;5.462;2022-12-18T08:22:34;-8.10;1.00
14401;DHT22;7285;50.894;5.462;2022-12-18T08:25:05;-8.00;1.00
14401;DHT22;7285;50.894;5.462;2022-12-18T08:27:32;-7.90;1.00
14401;DHT22;7285;50.894;5.462;2022-12-18T08:29:59;-7.80;1.00
14401;DHT22;7285;50.894;5.462;2022-12-18T08:32:27;-7.80;1.00
14401;DHT22;7285;50.894;5.462;2022-12-18T08:34:56;-7.70;1.00
14401;DHT22;7285;50.894;5.462;2022-12-18T08:37:22;-7.60;1.00
14401;DHT22;7285;50.894;5.462;2022-12-18T08:39:49;-7.50;1.00
14401;DHT22;7285;50.894;5.462;2022-12-18T08:42:16;-7.40;1.00
14401;DHT22;7285;50.894;5.462;2022-12-18T08:45:01;-7.30;1.00
14401;DHT22;7285;50.894;5.462;2022-12-18T08:47:28;-7.20;1.00
14401;DHT22;7285;50.894;5.462;2022-12-18T08:49:56;-7.10;1.00
14401;DHT22;7285;50.894;5.462;2022-12-18T08:52:23;-6.90;1.00
14401;DHT22;7285;50.894;5.462;2022-12-18T08:54:50;-6.80;1.00
14401;DHT22;7285;50.894;5.462;2022-12-18T08:57:17;-6.70;1.00
14401;DHT22;7285;50.894;5.462;2022-12-18T08:59:44;-6.50;1.00
14401;DHT22;7285;50.894;5.462;2022-12-18T09:02:11;-6.40;1.00
14401;DHT22;7285;50.894;5.462;2022-12-18T09:04:38;-6.30;1.00
14401;DHT22;7285;50.894;5.462;2022-12-18T09:07:07;-6.10;1.00
14401;DHT22;7285;50.894;5.462;2022-12-18T09:09:34;-6.00;1.00
14401;DHT22;7285;50.894;5.462;2022-12-18T09:12:03;-5.90;1.00
14401;DHT22;7285;50.894;5.462;2022-12-18T09:14:30;-5.80;1.00
14401;DHT22;7285;50.894;5.462;2022-12-18T09:16:56;-5.70;1.00
14401;DHT22;7285;50.894;5.462;2022-12-18T09:19:23;-5.60;1.00
14401;DHT22;7285;50.894;5.462;2022-12-18T09:21:50;-5.50;1.00
14401;DHT22;7285;50.894;5.462;2022-12-18T09:24:18;-5.40;1.00
14401;DHT22;7285;50.894;5.462;2022-12-18T09:26:45;-5.40;1.00
14401;DHT22;7285;50.894;5.462;2022-12-18T09:29:12;-5.30;1.00
14401;DHT22;7285;50.894;5.462;2022-12-18T09:31:40;-5.20;1.00
14401;DHT22;7285;50.894;5.462;2022-12-18T09:34:07;-5.10;99.90
14401;DHT22;7285;50.894;5.462;2022-12-18T09:36:34;-5.00;99.90
14401;DHT22;7285;50.894;5.462;2022-12-18T09:39:01;-4.90;99.90
14401;DHT22;7285;50.894;5.462;2022-12-18T09:41:40;-4.80;99.90
14401;DHT22;7285;50.894;5.462;2022-12-18T09:44:22;-4.70;99.90
14401;DHT22;7285;50.894;5.462;2022-12-18T09:46:53;-4.70;99.90
14401;DHT22;7285;50.894;5.462;2022-12-18T09:49:23;-4.60;99.90
14401;DHT22;7285;50.894;5.462;2022-12-18T09:51:54;-4.50;99.90
14401;DHT22;7285;50.894;5.462;2022-12-18T09:54:26;-4.40;99.90
14401;DHT22;7285;50.894;5.462;2022-12-18T09:56:58;-4.30;99.90
14401;DHT22;7285;50.894;5.462;2022-12-18T09:59:27;-4.20;99.90
14401;DHT22;7285;50.894;5.462;2022-12-18T10:01:56;-4.10;99.90
14401;DHT22;7285;50.894;5.462;2022-12-18T10:04:24;-4.00;99.90
14401;DHT22;7285;50.894;5.462;2022-12-18T10:06:56;-4.00;99.90
14401;DHT22;7285;50.894;5.462;2022-12-18T10:09:32;-3.90;99.90
14401;DHT22;7285;50.894;5.462;2022-12-18T10:12:07;-3.80;99.90
14401;DHT22;7285;50.894;5.462;2022-12-18T10:14:42;-3.80;92.30
14401;DHT22;7285;50.894;5.462;2022-12-18T10:17:22;-3.80;64.70
14401;DHT22;7285;50.894;5.462;2022-12-18T10:19:54;-3.70;43.00
14401;DHT22;7285;50.894;5.462;2022-12-18T10:22:32;-3.60;41.50
14401;DHT22;7285;50.894;5.462;2022-12-18T10:25:05;-3.60;49.20
14401;DHT22;7285;50.894;5.462;2022-12-18T10:27:34;-3.50;8.90
14401;DHT22;7285;50.894;5.462;2022-12-18T10:30:04;-3.50;9.40
14401;DHT22;7285;50.894;5.462;2022-12-18T10:32:38;-3.50;1.00
14401;DHT22;7285;50.894;5.462;2022-12-18T10:35:17;-3.40;1.00
14401;DHT22;7285;50.894;5.462;2022-12-18T10:38:03;-3.30;15.60
14401;DHT22;7285;50.894;5.462;2022-12-18T10:40:31;-3.30;76.50
14401;DHT22;7285;50.894;5.462;2022-12-18T10:43:12;-3.20;99.90
14401;DHT22;7285;50.894;5.462;2022-12-18T10:45:40;-3.20;99.90
14401;DHT22;7285;50.894;5.462;2022-12-18T10:48:18;-3.10;99.90
14401;DHT22;7285;50.894;5.462;2022-12-18T10:50:48;-3.00;99.90
14401;DHT22;7285;50.894;5.462;2022-12-18T10:53:20;-2.90;99.90
14401;DHT22;7285;50.894;5.462;2022-12-18T10:55:48;-2.90;99.90
14401;DHT22;7285;50.894;5.462;2022-12-18T10:58:24;-2.80;99.90
14401;DHT22;7285;50.894;5.462;2022-12-18T11:01:09;-2.70;99.90
14401;DHT22;7285;50.894;5.462;2022-12-18T11:03:38;-2.70;99.90
14401;DHT22;7285;50.894;5.462;2022-12-18T11:06:08;-2.60;99.90
14401;DHT22;7285;50.894;5.462;2022-12-18T11:08:36;-2.60;99.90
14401;DHT22;7285;50.894;5.462;2022-12-18T11:11:06;-2.60;88.60
14401;DHT22;7285;50.894;5.462;2022-12-18T11:13:35;-2.50;35.10
14401;DHT22;7285;50.894;5.462;2022-12-18T11:16:02;-2.50;32.20
14401;DHT22;7285;50.894;5.462;2022-12-18T11:18:31;-2.50;8.00
14401;DHT22;7285;50.894;5.462;2022-12-18T11:21:04;-2.50;1.00
14401;DHT22;7285;50.894;5.462;2022-12-18T11:23:33;-2.40;1.00
14401;DHT22;7285;50.894;5.462;2022-12-18T11:26:02;-2.40;1.00
14401;DHT22;7285;50.894;5.462;2022-12-18T11:28:37;-2.40;1.00
14401;DHT22;7285;50.894;5.462;2022-12-18T11:31:15;-2.30;1.00
14401;DHT22;7285;50.894;5.462;2022-12-18T11:33:46;-2.30;1.00
14401;DHT22;7285;50.894;5.462;2022-12-18T11:36:14;-2.20;1.00
14401;DHT22;7285;50.894;5.462;2022-12-18T11:38:44;-2.10;1.00
14401;DHT22;7285;50.894;5.462;2022-12-18T11:41:19;-2.10;1.00
14401;DHT22;7285;50.894;5.462;2022-12-18T11:43:52;-2.00;1.00
14401;DHT22;7285;50.894;5.462;2022-12-18T11:46:26;-1.90;1.00
14401;DHT22;7285;50.894;5.462;2022-12-18T11:49:01;-1.90;1.00
14401;DHT22;7285;50.894;5.462;2022-12-18T11:51:34;-1.90;1.00
14401;DHT22;7285;50.894;5.462;2022-12-18T11:54:10;-1.80;1.00
14401;DHT22;7285;50.894;5.462;2022-12-18T11:56:43;-1.70;1.00
14401;DHT22;7285;50.894;5.462;2022-12-18T11:59:19;-1.70;1.00
14401;DHT22;7285;50.894;5.462;2022-12-18T12:01:56;-1.60;1.00
14401;DHT22;7285;50.894;5.462;2022-12-18T12:04:56;-1.60;1.00
14401;DHT22;7285;50.894;5.462;2022-12-18T12:07:34;-1.60;1.00
14401;DHT22;7285;50.894;5.462;2022-12-18T12:10:18;-1.60;1.00
14401;DHT22;7285;50.894;5.462;2022-12-18T12:13:00;-1.50;1.00
14401;DHT22;7285;50.894;5.462;2022-12-18T12:15:41;-1.50;1.00
14401;DHT22;7285;50.894;5.462;2022-12-18T12:18:21;-1.50;1.00
14401;DHT22;7285;50.894;5.462;2022-12-18T12:20:58;-1.50;1.00
14401;DHT22;7285;50.894;5.462;2022-12-18T12:23:34;-1.40;1.00
14401;DHT22;7285;50.894;5.462;2022-12-18T12:26:07;-1.40;1.00
14401;DHT22;7285;50.894;5.462;2022-12-18T12:28:59;-1.40;1.00
14401;DHT22;7285;50.894;5.462;2022-12-18T12:31:49;-1.30;1.00
14401;DHT22;7285;50.894;5.462;2022-12-18T12:34:22;-1.30;1.00
14401;DHT22;7285;50.894;5.462;2022-12-18T12:37:07;-1.30;1.00
14401;DHT22;7285;50.894;5.462;2022-12-18T12:39:40;-1.20;1.00
14401;DHT22;7285;50.894;5.462;2022-12-18T12:42:16;-1.30;1.00
14401;DHT22;7285;50.894;5.462;2022-12-18T12:45:05;-1.20;1.00
14401;DHT22;7285;50.894;5.462;2022-12-18T12:47:38;-1.20;1.00
14401;DHT22;7285;50.894;5.462;2022-12-18T12:50:13;-1.10;1.00
14401;DHT22;7285;50.894;5.462;2022-12-18T12:52:43;-1.20;1.00
14401;DHT22;7285;50.894;5.462;2022-12-18T12:55:15;-1.10;1.00
14401;DHT22;7285;50.894;5.462;2022-12-18T12:57:45;-1.10;1.00
14401;DHT22;7285;50.894;5.462;2022-12-18T13:00:16;-1.10;1.00
14401;DHT22;7285;50.894;5.462;2022-12-18T13:02:52;-1.10;1.00
14401;DHT22;7285;50.894;5.462;2022-12-18T13:05:25;-1.10;1.00
14401;DHT22;7285;50.894;5.462;2022-12-18T13:07:57;-1.00;1.00
14401;DHT22;7285;50.894;5.462;2022-12-18T13:10:33;-1.00;1.00
14401;DHT22;7285;50.894;5.462;2022-12-18T13:13:02;-1.00;1.00
14401;DHT22;7285;50.894;5.462;2022-12-18T13:15:36;-0.90;1.00
14401;DHT22;7285;50.894;5.462;2022-12-18T13:18:13;-0.90;1.00
14401;DHT22;7285;50.894;5.462;2022-12-18T13:20:43;-0.80;1.00
14401;DHT22;7285;50.894;5.462;2022-12-18T13:23:26;-0.70;1.00
14401;DHT22;7285;50.894;5.462;2022-12-18T13:25:55;-0.70;1.00
14401;DHT22;7285;50.894;5.462;2022-12-18T13:28:23;-0.70;1.00
14401;DHT22;7285;50.894;5.462;2022-12-18T13:30:55;-0.70;1.00
14401;DHT22;7285;50.894;5.462;2022-12-18T13:33:51;-0.60;1.00
14401;DHT22;7285;50.894;5.462;2022-12-18T13:36:35;-0.50;1.00
14401;DHT22;7285;50.894;5.462;2022-12-18T13:39:22;-0.50;99.90
14401;DHT22;7285;50.894;5.462;2022-12-18T13:41:51;-0.50;99.90
14401;DHT22;7285;50.894;5.462;2022-12-18T13:44:28;-0.50;99.90
14401;DHT22;7285;50.894;5.462;2022-12-18T13:46:57;-0.40;1.00
14401;DHT22;7285;50.894;5.462;2022-12-18T13:49:30;-0.40;1.00
14401;DHT22;7285;50.894;5.462;2022-12-18T13:52:02;-0.40;1.00
14401;DHT22;7285;50.894;5.462;2022-12-18T13:54:34;-0.40;99.90
14401;DHT22;7285;50.894;5.462;2022-12-18T13:57:02;-0.40;99.90
14401;DHT22;7285;50.894;5.462;2022-12-18T13:59:34;-0.30;99.90
14401;DHT22;7285;50.894;5.462;2022-12-18T14:02:12;-0.40;99.90
14401;DHT22;7285;50.894;5.462;2022-12-18T14:04:44;-0.30;99.90
14401;DHT22;7285;50.894;5.462;2022-12-18T14:07:13;-0.40;99.90
14401;DHT22;7285;50.894;5.462;2022-12-18T14:09:43;-0.30;99.90
14401;DHT22;7285;50.894;5.462;2022-12-18T14:12:16;-0.30;99.90
14401;DHT22;7285;50.894;5.462;2022-12-18T14:15:02;-0.30;99.90
14401;DHT22;7285;50.894;5.462;2022-12-18T14:17:31;-0.40;99.90
14401;DHT22;7285;50.894;5.462;2022-12-18T14:20:00;-0.40;99.90
14401;DHT22;7285;50.894;5.462;2022-12-18T14:22:27;-0.40;99.90
14401;DHT22;7285;50.894;5.462;2022-12-18T14:25:16;-0.40;1.00
14401;DHT22;7285;50.894;5.462;2022-12-18T14:27:45;-0.40;1.00
14401;DHT22;7285;50.894;5.462;2022-12-18T14:30:35;-0.40;1.00
14401;DHT22;7285;50.894;5.462;2022-12-18T14:33:04;-0.40;1.00
14401;DHT22;7285;50.894;5.462;2022-12-18T14:35:33;-0.40;1.00
14401;DHT22;7285;50.894;5.462;2022-12-18T14:38:21;-0.40;1.00
14401;DHT22;7285;50.894;5.462;2022-12-18T14:40:52;-0.40;1.00
14401;DHT22;7285;50.894;5.462;2022-12-18T14:43:20;-0.40;1.00
14401;DHT22;7285;50.894;5.462;2022-12-18T14:45:47;-0.50;1.00
14401;DHT22;7285;50.894;5.462;2022-12-18T14:48:16;-0.50;1.00
14401;DHT22;7285;50.894;5.462;2022-12-18T14:50:54;-0.50;1.00
14401;DHT22;7285;50.894;5.462;2022-12-18T14:53:26;-0.50;1.00
14401;DHT22;7285;50.894;5.462;2022-12-18T14:55:55;-0.50;1.00
14401;DHT22;7285;50.894;5.462;2022-12-18T14:58:22;-0.50;1.00
14401;DHT22;7285;50.894;5.462;2022-12-18T15:00:49;-0.50;1.00
14401;DHT22;7285;50.894;5.462;2022-12-18T15:03:18;-0.50;1.00
14401;DHT22;7285;50.894;5.462;2022-12-18T15:05:48;-0.50;1.00
14401;DHT22;7285;50.894;5.462;2022-12-18T15:08:29;-0.60;1.00
14401;DHT22;7285;50.894;5.462;2022-12-18T15:10:56;-0.60;1.00
14401;DHT22;7285;50.894;5.462;2022-12-18T15:13:24;-0.70;1.00
14401;DHT22;7285;50.894;5.462;2022-12-18T15:15:52;-0.70;1.00
14401;DHT22;7285;50.894;5.462;2022-12-18T15:18:23;-0.70;1.00
14401;DHT22;7285;50.894;5.462;2022-12-18T15:20:56;-0.70;1.00
14401;DHT22;7285;50.894;5.462;2022-12-18T15:23:26;-0.80;1.00
14401;DHT22;7285;50.894;5.462;2022-12-18T15:25:58;-0.80;1.00
14401;DHT22;7285;50.894;5.462;2022-12-18T15:28:28;-0.90;1.00
14401;DHT22;7285;50.894;5.462;2022-12-18T15:31:05;-0.90;1.00
14401;DHT22;7285;50.894;5.462;2022-12-18T15:33:35;-0.90;1.00
14401;DHT22;7285;50.894;5.462;2022-12-18T15:36:07;-1.00;1.00
14401;DHT22;7285;50.894;5.462;2022-12-18T15:38:34;-1.10;1.00
14401;DHT22;7285;50.894;5.462;2022-12-18T15:41:02;-1.10;1.00
14401;DHT22;7285;50.894;5.462;2022-12-18T15:43:29;-1.10;1.00
14401;DHT22;7285;50.894;5.462;2022-12-18T15:46:02;-1.10;1.00
14401;DHT22;7285;50.894;5.462;2022-12-18T15:48:30;-1.20;1.00
14401;DHT22;7285;50.894;5.462;2022-12-18T15:50:58;-1.20;1.00
14401;DHT22;7285;50.894;5.462;2022-12-18T15:53:30;-1.20;1.00
14401;DHT22;7285;50.894;5.462;2022-12-18T15:55:58;-1.20;17.60
14401;DHT22;7285;50.894;5.462;2022-12-18T15:58:42;-1.20;93.80
14401;DHT22;7285;50.894;5.462;2022-12-18T16:01:10;-1.20;99.90
14401;DHT22;7285;50.894;5.462;2022-12-18T16:03:37;-1.20;99.90
14401;DHT22;7285;50.894;5.462;2022-12-18T16:06:04;-1.30;99.90
14401;DHT22;7285;50.894;5.462;2022-12-18T16:08:32;-1.30;99.90
14401;DHT22;7285;50.894;5.462;2022-12-18T16:11:00;-1.30;99.90
14401;DHT22;7285;50.894;5.462;2022-12-18T16:13:28;-1.20;99.90
14401;DHT22;7285;50.894;5.462;2022-12-18T16:15:55;-1.30;99.90